Search for airport 
image banner adimage banner ad
image banner ad

VAKE - Kandla

Located in Kandla, India

ICAO - VAKE, IATA - IXY

Data provided by Airmate  

General information

Coordinates: N23°6'44" E70°6'2"
Elevation is 96 feet MSL.
 
Rated:
View ratings: [VIEW]


View others Airports in Gujarat

Operational data

Open for public use
Current time UTC:
Current local time:
Weather
TAF: TAF VAKE 180800Z 1809/1818 24005KT 6000 FEW020 SCT025 BECMG 1811/1813 28008KT 4000 HZ
View NOTAMs / SUP AIP / TFR affecting this airport [VIEW]
Communications frequencies: [VIEW]

Runways:

RWY identifierQFULength (ft)Width (ft)SurfaceLDA (ft)
0550°500098CON
23230°500098

Airport contact information

Address: Kandla India

Satellite view of VAKE